createdAt,value
2018-05-29T00:00:00.290Z,22.70
2018-05-29T00:02:26.254Z,22.70
2018-05-29T00:04:52.994Z,22.50
2018-05-29T00:07:19.715Z,22.40
2018-05-29T00:09:45.723Z,22.30
2018-05-29T00:12:11.734Z,22.30
2018-05-29T00:14:37.713Z,22.20
2018-05-29T00:17:03.677Z,22.10
2018-05-29T00:19:29.636Z,22.10
2018-05-29T00:21:56.389Z,22.30
2018-05-29T00:24:23.134Z,22.40
2018-05-29T00:26:49.922Z,22.50
2018-05-29T00:29:15.878Z,22.40
2018-05-29T00:31:41.843Z,22.50
2018-05-29T00:34:07.847Z,22.50
2018-05-29T00:36:33.817Z,22.50
2018-05-29T00:38:59.782Z,22.40
2018-05-29T00:41:26.490Z,22.30
2018-05-29T00:43:52.444Z,22.40
2018-05-29T00:46:18.394Z,22.30
2018-05-29T00:48:45.092Z,22.30
2018-05-29T00:51:11.059Z,22.20
2018-05-29T00:53:37.022Z,22.30
2018-05-29T00:56:03.738Z,22.20
2018-05-29T00:58:29.707Z,22.10
2018-05-29T01:00:56.451Z,21.90
2018-05-29T01:03:22.523Z,21.90
2018-05-29T01:05:48.510Z,21.80
2018-05-29T01:08:14.467Z,21.70
2018-05-29T01:10:41.194Z,21.80
2018-05-29T01:13:07.206Z,21.70
2018-05-29T01:15:33.166Z,21.80
2018-05-29T01:17:59.123Z,21.70
2018-05-29T01:20:25.830Z,21.60
2018-05-29T01:22:51.779Z,21.60
2018-05-29T01:25:17.839Z,21.60
2018-05-29T01:27:44.656Z,21.90
2018-05-29T01:30:10.692Z,21.90
2018-05-29T01:32:36.670Z,21.90
2018-05-29T01:35:03.382Z,22.10
2018-05-29T01:37:29.341Z,22.00
2018-05-29T01:39:55.315Z,22.10
2018-05-29T01:42:21.303Z,21.90
2018-05-29T01:44:47.282Z,21.90
2018-05-29T01:47:13.385Z,21.90
2018-05-29T01:49:39.981Z,21.90
2018-05-29T01:52:05.943Z,21.90
2018-05-29T01:54:31.912Z,21.80
2018-05-29T01:56:57.879Z,21.70
2018-05-29T01:59:23.841Z,21.60
2018-05-29T02:01:49.798Z,21.60
2018-05-29T02:04:15.844Z,21.70
2018-05-29T02:06:41.914Z,21.60
2018-05-29T02:09:08.623Z,21.70
2018-05-29T02:11:34.607Z,21.60
2018-05-29T02:14:00.580Z,21.60
2018-05-29T02:16:26.550Z,21.50
2018-05-29T02:18:52.515Z,21.50
2018-05-29T02:21:18.484Z,21.50
2018-05-29T02:23:44.539Z,21.50
2018-05-29T02:26:10.543Z,21.50
2018-05-29T02:28:36.523Z,21.40
2018-05-29T02:31:02.491Z,21.40
2018-05-29T02:33:28.486Z,21.40
2018-05-29T02:35:55.919Z,21.20
2018-05-29T02:38:21.887Z,21.10
2018-05-29T02:40:47.972Z,21.20
2018-05-29T02:43:14.078Z,21.10
2018-05-29T02:45:40.352Z,21.10
2018-05-29T02:48:06.331Z,21.00
2018-05-29T02:50:32.298Z,20.90
2018-05-29T02:52:59.000Z,20.80
2018-05-29T02:55:24.970Z,20.80
2018-05-29T02:57:50.927Z,20.80
2018-05-29T03:00:16.911Z,20.90
2018-05-29T03:02:42.917Z,20.80
2018-05-29T03:05:08.897Z,20.80
2018-05-29T03:07:34.863Z,20.80
2018-05-29T03:10:01.575Z,20.70
2018-05-29T03:12:27.530Z,20.70
2018-05-29T03:14:53.495Z,20.70
2018-05-29T03:17:20.194Z,20.70
2018-05-29T03:19:46.198Z,20.70
2018-05-29T03:22:12.215Z,20.60
2018-05-29T03:24:38.927Z,20.60
2018-05-29T03:27:04.931Z,20.70
2018-05-29T03:29:30.894Z,20.60
2018-05-29T03:31:56.883Z,20.70
2018-05-29T03:34:22.881Z,20.60
2018-05-29T03:36:48.835Z,20.60
2018-05-29T03:39:15.567Z,20.60
2018-05-29T03:41:42.521Z,20.70
2018-05-29T03:44:08.472Z,20.70
2018-05-29T03:46:34.468Z,20.70
2018-05-29T03:49:00.458Z,20.80
2018-05-29T03:51:27.200Z,20.90
2018-05-29T03:53:53.135Z,20.90
2018-05-29T03:56:19.110Z,21.10
2018-05-29T03:58:45.103Z,21.40
2018-05-29T04:01:11.109Z,21.30
2018-05-29T04:03:37.065Z,21.40
2018-05-29T04:06:03.047Z,21.50
2018-05-29T04:08:29.895Z,21.60
2018-05-29T04:10:55.858Z,21.90
2018-05-29T04:13:21.819Z,22.00
2018-05-29T04:15:47.782Z,22.10
2018-05-29T04:18:14.506Z,22.40
2018-05-29T04:20:40.484Z,22.30
2018-05-29T04:23:06.455Z,22.50
2018-05-29T04:25:32.410Z,22.60
2018-05-29T04:27:58.381Z,22.80
2018-05-29T04:30:25.110Z,23.00
2018-05-29T04:32:51.074Z,23.00
2018-05-29T04:35:17.780Z,23.20
2018-05-29T04:37:43.809Z,23.10
2018-05-29T04:40:09.793Z,23.50
2018-05-29T04:42:36.515Z,24.00
2018-05-29T04:45:02.493Z,24.00
2018-05-29T04:47:28.457Z,24.10
2018-05-29T04:49:54.415Z,24.20
2018-05-29T04:52:20.379Z,24.70
2018-05-29T04:54:47.118Z,27.00
2018-05-29T04:57:13.156Z,27.00
2018-05-29T04:59:39.115Z,28.00
2018-05-29T05:02:05.835Z,29.50
2018-05-29T05:04:31.802Z,29.40
2018-05-29T05:06:58.503Z,29.80
2018-05-29T05:09:24.466Z,29.80
2018-05-29T05:11:50.442Z,29.30
2018-05-29T05:14:16.511Z,29.80
2018-05-29T05:16:42.510Z,29.20
2018-05-29T05:19:08.489Z,29.40
2018-05-29T05:21:34.451Z,29.90
2018-05-29T05:24:01.167Z,30.10
2018-05-29T05:26:27.158Z,30.10
2018-05-29T05:28:53.123Z,29.90
2018-05-29T05:31:19.082Z,29.30
2018-05-29T05:33:45.120Z,28.70
2018-05-29T05:36:11.239Z,28.70
2018-05-29T05:38:37.186Z,28.50
2018-05-29T05:41:03.148Z,27.50
2018-05-29T05:43:29.123Z,28.10
2018-05-29T05:45:55.088Z,29.40
2018-05-29T05:48:21.059Z,30.40
2018-05-29T05:50:47.766Z,32.00
2018-05-29T05:53:13.750Z,32.00
2018-05-29T05:55:40.458Z,33.60
2018-05-29T05:58:06.417Z,33.50
2018-05-29T06:00:32.401Z,34.70
2018-05-29T06:02:58.381Z,33.30
2018-05-29T06:05:24.334Z,32.00
2018-05-29T06:07:51.043Z,30.60
2018-05-29T06:10:17.048Z,30.60
2018-05-29T06:12:43.051Z,30.30
2018-05-29T06:15:09.766Z,32.70
2018-05-29T06:17:35.719Z,32.60
2018-05-29T06:20:01.697Z,33.40
2018-05-29T06:22:28.386Z,36.10
2018-05-29T06:24:54.343Z,36.00
2018-05-29T06:27:20.299Z,36.00
2018-05-29T06:29:47.030Z,36.10
2018-05-29T06:32:13.035Z,36.00
2018-05-29T06:34:38.999Z,35.60
2018-05-29T06:37:05.091Z,36.10
2018-05-29T06:39:31.055Z,36.20
2018-05-29T06:41:57.019Z,36.90
2018-05-29T06:44:22.999Z,37.60
2018-05-29T06:46:48.998Z,37.40
2018-05-29T06:49:14.996Z,36.00
2018-05-29T06:51:40.998Z,35.80
2018-05-29T06:54:06.984Z,35.50
2018-05-29T06:56:32.942Z,36.50
2018-05-29T06:58:58.904Z,37.10
2018-05-29T07:01:24.854Z,37.50
2018-05-29T07:03:50.845Z,36.80
2018-05-29T07:06:17.551Z,37.10
2018-05-29T07:08:43.558Z,37.10
2018-05-29T07:11:09.506Z,38.80
2018-05-29T07:13:35.483Z,38.20
2018-05-29T07:16:01.454Z,36.20
2018-05-29T07:18:28.158Z,34.20
2018-05-29T07:20:54.139Z,34.10
2018-05-29T07:23:20.843Z,34.20
2018-05-29T07:25:46.823Z,34.30
2018-05-29T07:28:13.564Z,36.00
2018-05-29T07:30:39.535Z,36.00
2018-05-29T07:33:05.530Z,37.20
2018-05-29T07:35:31.474Z,35.20
2018-05-29T07:37:58.190Z,35.50
2018-05-29T07:40:24.150Z,35.50
2018-05-29T07:42:50.126Z,34.60
2018-05-29T07:45:17.378Z,33.20
2018-05-29T07:47:43.358Z,33.10
2018-05-29T07:50:09.310Z,32.70
2018-05-29T07:52:35.264Z,32.10
2018-05-29T07:55:01.223Z,32.20
2018-05-29T07:57:27.190Z,31.70
2018-05-29T07:59:53.175Z,33.00
2018-05-29T08:02:19.923Z,33.20
2018-05-29T08:04:45.926Z,33.20
2018-05-29T08:07:11.997Z,34.50
2018-05-29T08:09:38.725Z,33.90
2018-05-29T08:12:04.693Z,33.90
2018-05-29T08:14:31.407Z,33.40
2018-05-29T08:16:57.370Z,33.40
2018-05-29T08:19:23.334Z,34.10
2018-05-29T08:21:49.310Z,33.90
2018-05-29T08:24:15.320Z,34.20
2018-05-29T08:26:41.406Z,36.50
2018-05-29T08:29:07.363Z,38.70
2018-05-29T08:31:34.067Z,39.60
2018-05-29T08:34:00.023Z,39.50
2018-05-29T08:36:25.991Z,38.90
2018-05-29T08:38:51.954Z,39.20
2018-05-29T08:41:17.986Z,39.90
2018-05-29T08:43:43.983Z,39.40
2018-05-29T08:46:10.743Z,37.50
2018-05-29T08:48:36.739Z,37.40
2018-05-29T08:51:02.763Z,39.00
2018-05-29T08:53:28.731Z,41.30
2018-05-29T08:55:55.426Z,42.60
2018-05-29T08:58:21.399Z,42.50
2018-05-29T09:00:47.403Z,43.60
2018-05-29T09:03:13.470Z,44.50
2018-05-29T09:05:39.439Z,44.80
2018-05-29T09:08:06.147Z,44.50
2018-05-29T09:10:32.106Z,44.50
2018-05-29T09:12:58.810Z,44.80
2018-05-29T09:15:24.776Z,44.80
2018-05-29T09:17:50.743Z,42.50
2018-05-29T09:20:16.725Z,42.10
2018-05-29T09:22:42.737Z,41.80
2018-05-29T09:25:08.714Z,41.90
2018-05-29T09:27:34.671Z,40.40
2018-05-29T09:30:00.643Z,40.00
2018-05-29T09:32:26.615Z,39.50
2018-05-29T09:34:52.571Z,39.10
2018-05-29T09:37:19.051Z,38.30
2018-05-29T09:39:45.759Z,36.60
2018-05-29T09:42:11.748Z,36.60
2018-05-29T09:44:37.729Z,35.70
2018-05-29T09:47:03.703Z,35.50
2018-05-29T09:49:30.412Z,34.30
2018-05-29T09:51:56.396Z,34.20
2018-05-29T09:54:23.135Z,34.50
2018-05-29T09:56:49.098Z,34.40
2018-05-29T09:59:15.864Z,33.80
2018-05-29T10:01:41.936Z,33.80
2018-05-29T10:04:07.914Z,33.90
2018-05-29T10:06:34.655Z,34.00
2018-05-29T10:09:00.627Z,34.00
2018-05-29T10:11:26.595Z,33.90
2018-05-29T10:13:52.551Z,34.00
2018-05-29T10:16:18.569Z,33.90
2018-05-29T10:18:44.595Z,33.70
2018-05-29T10:21:10.571Z,32.90
2018-05-29T10:23:37.283Z,32.40
2018-05-29T10:26:03.239Z,32.40
2018-05-29T10:28:29.206Z,32.40
2018-05-29T10:30:55.977Z,32.70
2018-05-29T10:33:21.900Z,32.70
2018-05-29T10:35:48.622Z,32.80
2018-05-29T10:38:15.375Z,32.80
2018-05-29T10:40:42.041Z,32.80
2018-05-29T10:43:08.738Z,32.80
2018-05-29T10:45:34.708Z,32.80
2018-05-29T10:48:00.786Z,32.80
2018-05-29T10:50:27.488Z,32.60
2018-05-29T10:52:53.458Z,32.60
2018-05-29T10:55:20.171Z,32.40
2018-05-29T10:57:46.270Z,32.30
2018-05-29T11:00:12.494Z,32.40
2018-05-29T11:02:39.425Z,31.90
2018-05-29T11:05:05.418Z,31.90
2018-05-29T11:07:31.390Z,31.40
2018-05-29T11:09:57.394Z,31.40
2018-05-29T11:12:23.375Z,31.50
2018-05-29T11:14:49.341Z,31.50
2018-05-29T11:17:16.070Z,31.50
2018-05-29T11:19:42.940Z,31.50
2018-05-29T11:22:08.947Z,31.50
2018-05-29T11:24:34.912Z,31.30
2018-05-29T11:27:01.637Z,31.60
2018-05-29T11:29:27.597Z,31.60
2018-05-29T11:31:54.314Z,31.90
2018-05-29T11:34:20.279Z,31.90
2018-05-29T11:36:47.003Z,32.20
2018-05-29T11:39:13.006Z,32.10
2018-05-29T11:41:38.971Z,32.30
2018-05-29T11:44:04.938Z,32.30
2018-05-29T11:46:31.645Z,32.70
2018-05-29T11:48:57.691Z,32.70
2018-05-29T11:51:23.654Z,33.00
2018-05-29T11:53:49.626Z,33.20
2018-05-29T11:56:15.668Z,33.30
2018-05-29T11:58:41.662Z,33.30
2018-05-29T12:01:08.358Z,32.50
2018-05-29T12:03:34.322Z,32.50
2018-05-29T12:06:00.288Z,32.40
2018-05-29T12:08:26.998Z,32.60
2018-05-29T12:10:52.987Z,32.60
2018-05-29T12:13:19.699Z,33.50
2018-05-29T12:15:45.750Z,33.50
2018-05-29T12:18:11.766Z,33.80
2018-05-29T12:20:37.742Z,34.20
2018-05-29T12:23:04.464Z,34.40
2018-05-29T12:25:30.439Z,34.40
2018-05-29T12:27:57.143Z,33.80
2018-05-29T12:30:23.107Z,33.80
2018-05-29T12:32:49.079Z,33.60
2018-05-29T12:35:15.083Z,33.20
2018-05-29T12:37:41.838Z,32.50
2018-05-29T12:40:08.567Z,32.40
2018-05-29T12:42:34.548Z,32.40
2018-05-29T12:45:00.505Z,32.60
2018-05-29T12:47:26.463Z,32.60
2018-05-29T12:49:52.551Z,32.80
2018-05-29T12:52:18.592Z,32.80
2018-05-29T12:54:44.610Z,33.00
2018-05-29T12:57:11.355Z,33.30
2018-05-29T12:59:37.322Z,33.20
2018-05-29T13:02:03.291Z,33.30
2018-05-29T13:04:29.278Z,33.30
2018-05-29T13:06:55.989Z,33.30
2018-05-29T13:09:22.019Z,33.30
2018-05-29T13:11:48.034Z,33.50
2018-05-29T13:14:14.063Z,33.40
2018-05-29T13:16:40.092Z,33.30
2018-05-29T13:19:06.003Z,33.20
2018-05-29T13:21:32.716Z,32.80
2018-05-29T13:23:58.674Z,32.70
2018-05-29T13:26:24.635Z,32.80
2018-05-29T13:28:51.339Z,32.60
2018-05-29T13:31:17.315Z,32.50
2018-05-29T13:33:44.082Z,33.00
2018-05-29T13:36:10.044Z,33.00
2018-05-29T13:38:36.020Z,32.80
2018-05-29T13:41:01.977Z,32.60
2018-05-29T13:43:28.706Z,32.20
2018-05-29T13:45:54.668Z,32.20
2018-05-29T13:48:21.415Z,31.60
2018-05-29T13:50:48.275Z,31.40
2018-05-29T13:53:15.062Z,31.40
2018-05-29T13:55:41.027Z,31.40
2018-05-29T13:58:06.998Z,31.40
2018-05-29T14:00:33.690Z,31.30
2018-05-29T14:02:59.658Z,31.20
2018-05-29T14:05:25.627Z,31.30
2018-05-29T14:07:51.607Z,31.40
2018-05-29T14:10:17.692Z,31.40
2018-05-29T14:12:44.495Z,31.50
2018-05-29T14:15:10.453Z,31.50
2018-05-29T14:17:36.416Z,31.60
2018-05-29T14:20:03.142Z,31.90
2018-05-29T14:22:29.108Z,31.90
2018-05-29T14:24:55.106Z,31.90
2018-05-29T14:27:21.067Z,31.80
2018-05-29T14:29:47.794Z,31.60
2018-05-29T14:32:13.812Z,31.60
2018-05-29T14:34:39.798Z,31.60
2018-05-29T14:37:06.511Z,31.90
2018-05-29T14:39:32.469Z,31.90
2018-05-29T14:41:59.184Z,32.00
2018-05-29T14:44:25.195Z,32.00
2018-05-29T14:46:51.198Z,31.90
2018-05-29T14:49:17.217Z,32.00
2018-05-29T14:51:43.339Z,31.90
2018-05-29T14:54:09.301Z,31.40
2018-05-29T14:56:35.250Z,31.10
2018-05-29T14:59:01.203Z,31.00
2018-05-29T15:01:27.167Z,30.90
2018-05-29T15:03:53.138Z,30.80
2018-05-29T15:06:19.120Z,30.80
2018-05-29T15:08:45.137Z,30.90
2018-05-29T15:11:11.118Z,31.10
2018-05-29T15:13:37.074Z,31.30
2018-05-29T15:16:03.056Z,31.30
2018-05-29T15:18:29.064Z,31.10
2018-05-29T15:20:55.057Z,31.10
2018-05-29T15:23:21.076Z,31.20
2018-05-29T15:25:47.063Z,30.90
2018-05-29T15:28:13.905Z,30.80
2018-05-29T15:30:39.871Z,30.80
2018-05-29T15:33:06.574Z,30.70
2018-05-29T15:35:32.538Z,30.70
2018-05-29T15:37:58.507Z,30.50
2018-05-29T15:40:24.528Z,30.40
2018-05-29T15:42:51.374Z,30.50
2018-05-29T15:45:18.131Z,30.40
2018-05-29T15:47:44.902Z,30.30
2018-05-29T15:50:10.879Z,30.30
2018-05-29T15:52:36.983Z,30.30
2018-05-29T15:55:02.958Z,30.40
2018-05-29T15:57:28.910Z,30.50
2018-05-29T15:59:55.699Z,30.60
2018-05-29T16:02:28.613Z,30.60
2018-05-29T16:04:54.580Z,30.70
2018-05-29T16:07:20.575Z,30.70
2018-05-29T16:09:46.624Z,30.50
2018-05-29T16:12:12.693Z,30.60
2018-05-29T16:14:39.505Z,30.70
2018-05-29T16:17:05.545Z,30.70
2018-05-29T16:19:31.539Z,30.50
2018-05-29T16:21:58.286Z,30.40
2018-05-29T16:24:24.350Z,30.40
2018-05-29T16:26:50.416Z,30.20
2018-05-29T16:29:16.472Z,30.10
2018-05-29T16:31:42.588Z,30.10
2018-05-29T16:34:08.630Z,30.10
2018-05-29T16:36:34.625Z,30.00
2018-05-29T16:39:01.383Z,29.80
2018-05-29T16:41:28.160Z,29.80
2018-05-29T16:43:54.220Z,29.70
2018-05-29T16:46:20.255Z,29.50
2018-05-29T16:48:46.390Z,29.50
2018-05-29T16:51:12.414Z,29.30
2018-05-29T16:53:38.427Z,29.30
2018-05-29T16:56:05.198Z,29.00
2018-05-29T16:58:31.242Z,29.00
2018-05-29T17:00:57.253Z,28.80
2018-05-29T17:03:24.023Z,28.60
2018-05-29T17:05:50.045Z,28.60
2018-05-29T17:08:16.865Z,28.60
2018-05-29T17:10:42.990Z,28.60
2018-05-29T17:13:08.984Z,28.60
2018-05-29T17:15:35.008Z,28.40
2018-05-29T17:18:01.787Z,28.50
2018-05-29T17:20:27.817Z,28.50
2018-05-29T17:22:53.850Z,28.60
2018-05-29T17:25:19.902Z,28.50
2018-05-29T17:27:46.031Z,28.40
2018-05-29T17:30:12.156Z,28.30
2018-05-29T17:32:38.151Z,28.40
2018-05-29T17:35:04.152Z,28.20
2018-05-29T17:37:30.173Z,27.80
2018-05-29T17:39:56.216Z,27.50
2018-05-29T17:42:22.195Z,27.30
2018-05-29T17:44:48.220Z,27.10
2018-05-29T17:47:14.497Z,27.10
2018-05-29T17:49:41.236Z,26.90
2018-05-29T17:52:07.960Z,26.60
2018-05-29T17:54:33.934Z,26.60
2018-05-29T17:56:59.903Z,26.60
2018-05-29T17:59:25.874Z,26.40
2018-05-29T18:01:51.857Z,26.30
2018-05-29T18:04:18.602Z,26.10
2018-05-29T18:06:45.372Z,26.20
2018-05-29T18:09:11.338Z,26.20
2018-05-29T18:11:37.310Z,26.20
2018-05-29T18:14:03.370Z,26.10
2018-05-29T18:16:29.290Z,26.10
2018-05-29T18:18:55.258Z,26.20
2018-05-29T18:21:21.214Z,26.10
2018-05-29T18:23:47.239Z,26.00
2018-05-29T18:26:13.231Z,25.70
2018-05-29T18:28:39.202Z,25.70
2018-05-29T18:31:05.177Z,25.70
2018-05-29T18:33:31.143Z,25.60
2018-05-29T18:35:57.860Z,25.30
2018-05-29T18:38:23.861Z,25.30
2018-05-29T18:40:50.567Z,25.20
2018-05-29T18:43:16.586Z,25.20
2018-05-29T18:45:42.595Z,25.20
2018-05-29T18:48:08.580Z,24.90
2018-05-29T18:50:34.547Z,24.80
2018-05-29T18:53:00.523Z,24.60
2018-05-29T18:55:26.527Z,24.70
2018-05-29T18:57:52.554Z,24.50
2018-05-29T19:00:18.649Z,24.50
2018-05-29T19:02:44.750Z,24.30
2018-05-29T19:05:10.759Z,24.40
2018-05-29T19:07:37.489Z,24.20
2018-05-29T19:10:03.455Z,24.20
2018-05-29T19:12:29.431Z,24.30
2018-05-29T19:14:55.378Z,24.20
2018-05-29T19:17:21.348Z,24.40
2018-05-29T19:19:48.114Z,24.00
2018-05-29T19:22:14.117Z,24.00
2018-05-29T19:24:40.087Z,23.90
2018-05-29T19:27:06.058Z,23.70
2018-05-29T19:29:32.020Z,23.50
2018-05-29T19:31:58.003Z,23.60
2018-05-29T19:34:23.977Z,23.60
2018-05-29T19:36:50.003Z,23.60
2018-05-29T19:39:16.018Z,23.50
2018-05-29T19:41:42.063Z,23.60
2018-05-29T19:44:08.064Z,23.50
2018-05-29T19:46:34.767Z,23.40
2018-05-29T19:49:00.747Z,23.40
2018-05-29T19:51:27.466Z,23.30
2018-05-29T19:53:53.427Z,23.30
2018-05-29T19:56:20.173Z,23.40
2018-05-29T19:58:46.924Z,23.40
2018-05-29T20:01:13.012Z,23.40
2018-05-29T20:03:38.938Z,23.50
2018-05-29T20:06:04.962Z,23.60
2018-05-29T20:08:31.010Z,23.70
2018-05-29T20:10:56.978Z,23.70
2018-05-29T20:13:22.965Z,23.60
2018-05-29T20:15:49.684Z,23.60
2018-05-29T20:18:15.709Z,23.60
2018-05-29T20:20:42.012Z,23.60
2018-05-29T20:23:07.993Z,23.60
2018-05-29T20:25:34.703Z,23.80
2018-05-29T20:28:00.670Z,23.80
2018-05-29T20:30:26.651Z,23.80
2018-05-29T20:32:52.623Z,24.00
2018-05-29T20:35:18.644Z,23.90
2018-05-29T20:37:44.623Z,23.80
2018-05-29T20:40:10.628Z,23.80
2018-05-29T20:42:36.610Z,23.80
2018-05-29T20:45:03.315Z,23.70
2018-05-29T20:47:29.274Z,23.70
2018-05-29T20:49:55.233Z,23.40
2018-05-29T20:52:21.942Z,23.10
2018-05-29T20:54:47.910Z,23.10
2018-05-29T20:57:13.875Z,23.00
2018-05-29T20:59:40.626Z,22.90
2018-05-29T21:02:06.613Z,22.90
2018-05-29T21:04:32.604Z,22.80
2018-05-29T21:06:58.576Z,23.10
2018-05-29T21:09:24.542Z,23.30
2018-05-29T21:11:50.499Z,23.40
2018-05-29T21:14:17.203Z,23.70
2018-05-29T21:16:43.178Z,23.70
2018-05-29T21:19:09.947Z,23.90
2018-05-29T21:21:35.927Z,23.90
2018-05-29T21:24:01.895Z,23.90
2018-05-29T21:26:27.862Z,23.80
2018-05-29T21:28:53.854Z,23.70
2018-05-29T21:31:19.812Z,23.80
2018-05-29T21:33:46.521Z,23.60
2018-05-29T21:36:12.536Z,23.50
2018-05-29T21:38:38.548Z,23.40
2018-05-29T21:41:04.519Z,23.30
2018-05-29T21:43:30.483Z,23.30
2018-05-29T21:45:57.915Z,23.20
2018-05-29T21:48:23.882Z,23.20
2018-05-29T21:50:49.838Z,23.30
2018-05-29T21:53:18.975Z,23.10
2018-05-29T21:55:45.036Z,23.10
2018-05-29T21:58:11.089Z,23.10
2018-05-29T22:00:37.096Z,23.20
2018-05-29T22:03:03.075Z,23.40
2018-05-29T22:05:29.114Z,23.40
2018-05-29T22:07:55.070Z,23.50
2018-05-29T22:10:21.775Z,23.60
2018-05-29T22:12:47.737Z,23.50
2018-05-29T22:15:13.695Z,23.50
2018-05-29T22:17:40.479Z,23.20
2018-05-29T22:20:06.470Z,23.10
2018-05-29T22:22:32.436Z,22.90
2018-05-29T22:24:58.414Z,22.90
2018-05-29T22:27:24.378Z,22.90
2018-05-29T22:29:50.347Z,22.80
2018-05-29T22:32:16.330Z,22.80
2018-05-29T22:34:42.367Z,22.70
2018-05-29T22:37:08.373Z,22.80
2018-05-29T22:39:34.364Z,22.80
2018-05-29T22:42:00.294Z,22.70
2018-05-29T22:44:27.003Z,22.70
2018-05-29T22:46:53.003Z,22.70
2018-05-29T22:49:18.958Z,22.70
2018-05-29T22:51:44.923Z,22.60
2018-05-29T22:54:10.907Z,22.60
2018-05-29T22:56:36.887Z,22.50
2018-05-29T22:59:03.675Z,22.30
2018-05-29T23:01:30.408Z,22.20
2018-05-29T23:03:56.371Z,22.10
2018-05-29T23:06:23.091Z,22.00
2018-05-29T23:08:49.067Z,22.00
2018-05-29T23:11:15.771Z,21.80
2018-05-29T23:13:41.819Z,21.80
2018-05-29T23:16:08.563Z,21.60
2018-05-29T23:18:34.518Z,21.60
2018-05-29T23:21:00.475Z,21.70
2018-05-29T23:23:27.176Z,21.70
2018-05-29T23:25:53.139Z,21.70
2018-05-29T23:28:19.102Z,21.80
2018-05-29T23:30:45.876Z,21.80
2018-05-29T23:33:11.878Z,21.80
2018-05-29T23:35:38.596Z,21.70
2018-05-29T23:38:04.559Z,21.70
2018-05-29T23:40:30.515Z,21.50
2018-05-29T23:42:57.937Z,21.20
2018-05-29T23:45:23.904Z,21.20
2018-05-29T23:47:50.599Z,21.10
2018-05-29T23:50:16.600Z,21.10
2018-05-29T23:52:50.178Z,20.90
2018-05-29T23:55:16.179Z,20.90
2018-05-29T23:57:42.217Z,20.80
